sensor_id;sensor_type;location;lat;lon;timestamp;temperature;humidity
4749;DHT22;2388;53.582;9.962;2022-08-30T00:00:09;17.50;99.90
4749;DHT22;2388;53.582;9.962;2022-08-30T00:02:54;17.40;99.90
4749;DHT22;2388;53.582;9.962;2022-08-30T00:05:19;17.40;99.90
4749;DHT22;2388;53.582;9.962;2022-08-30T00:07:45;17.30;99.90
4749;DHT22;2388;53.582;9.962;2022-08-30T00:10:10;17.40;99.90
4749;DHT22;2388;53.582;9.962;2022-08-30T00:12:37;17.30;99.90
4749;DHT22;2388;53.582;9.962;2022-08-30T00:15:04;17.30;99.90
4749;DHT22;2388;53.582;9.962;2022-08-30T00:17:31;17.30;99.90
4749;DHT22;2388;53.582;9.962;2022-08-30T00:19:57;17.30;99.90
4749;DHT22;2388;53.582;9.962;2022-08-30T00:22:23;17.20;99.90
4749;DHT22;2388;53.582;9.962;2022-08-30T00:24:48;17.30;99.90
4749;DHT22;2388;53.582;9.962;2022-08-30T00:27:14;17.30;99.90
4749;DHT22;2388;53.582;9.962;2022-08-30T00:29:40;17.20;99.90
4749;DHT22;2388;53.582;9.962;2022-08-30T00:32:06;17.30;99.90
4749;DHT22;2388;53.582;9.962;2022-08-30T00:34:32;17.30;99.90
4749;DHT22;2388;53.582;9.962;2022-08-30T00:36:58;17.30;99.90
4749;DHT22;2388;53.582;9.962;2022-08-30T00:39:24;17.30;99.90
4749;DHT22;2388;53.582;9.962;2022-08-30T00:41:50;17.30;99.90
4749;DHT22;2388;53.582;9.962;2022-08-30T00:44:16;17.30;99.90
4749;DHT22;2388;53.582;9.962;2022-08-30T00:46:42;17.30;99.90
4749;DHT22;2388;53.582;9.962;2022-08-30T00:49:10;17.30;99.90
4749;DHT22;2388;53.582;9.962;2022-08-30T00:51:37;17.30;99.90
4749;DHT22;2388;53.582;9.962;2022-08-30T00:54:04;17.30;99.90
4749;DHT22;2388;53.582;9.962;2022-08-30T00:56:30;17.30;99.90
4749;DHT22;2388;53.582;9.962;2022-08-30T00:58:58;17.30;99.90
4749;DHT22;2388;53.582;9.962;2022-08-30T01:01:25;17.30;99.90
4749;DHT22;2388;53.582;9.962;2022-08-30T01:03:51;17.30;99.90
4749;DHT22;2388;53.582;9.962;2022-08-30T01:06:17;17.30;99.90
4749;DHT22;2388;53.582;9.962;2022-08-30T01:08:45;17.30;99.90
4749;DHT22;2388;53.582;9.962;2022-08-30T01:11:14;17.20;99.90
4749;DHT22;2388;53.582;9.962;2022-08-30T01:13:41;17.30;99.90
4749;DHT22;2388;53.582;9.962;2022-08-30T01:16:07;17.30;99.90
4749;DHT22;2388;53.582;9.962;2022-08-30T01:18:33;17.30;99.90
4749;DHT22;2388;53.582;9.962;2022-08-30T01:23:46;17.30;99.90
4749;DHT22;2388;53.582;9.962;2022-08-30T01:26:13;17.30;99.90
4749;DHT22;2388;53.582;9.962;2022-08-30T01:28:39;17.30;99.90
4749;DHT22;2388;53.582;9.962;2022-08-30T01:31:05;17.20;99.90
4749;DHT22;2388;53.582;9.962;2022-08-30T01:33:32;17.20;99.90
4749;DHT22;2388;53.582;9.962;2022-08-30T01:36:04;17.20;99.90
4749;DHT22;2388;53.582;9.962;2022-08-30T01:38:57;17.20;99.90
4749;DHT22;2388;53.582;9.962;2022-08-30T01:41:32;17.20;99.90
4749;DHT22;2388;53.582;9.962;2022-08-30T01:44:00;17.20;99.90
4749;DHT22;2388;53.582;9.962;2022-08-30T01:46:33;17.20;99.90
4749;DHT22;2388;53.582;9.962;2022-08-30T01:49:06;17.20;99.90
4749;DHT22;2388;53.582;9.962;2022-08-30T01:51:32;17.20;99.90
4749;DHT22;2388;53.582;9.962;2022-08-30T01:53:58;17.10;99.90
4749;DHT22;2388;53.582;9.962;2022-08-30T01:56:25;17.10;99.90
4749;DHT22;2388;53.582;9.962;2022-08-30T01:58:51;17.10;99.90
4749;DHT22;2388;53.582;9.962;2022-08-30T02:01:19;17.10;99.90
4749;DHT22;2388;53.582;9.962;2022-08-30T02:03:46;17.10;99.90
4749;DHT22;2388;53.582;9.962;2022-08-30T02:06:14;17.00;99.90
4749;DHT22;2388;53.582;9.962;2022-08-30T02:08:41;17.00;99.90
4749;DHT22;2388;53.582;9.962;2022-08-30T02:11:08;17.10;99.90
4749;DHT22;2388;53.582;9.962;2022-08-30T02:13:35;17.00;99.90
4749;DHT22;2388;53.582;9.962;2022-08-30T02:16:03;17.00;99.90
4749;DHT22;2388;53.582;9.962;2022-08-30T02:18:28;17.00;99.90
4749;DHT22;2388;53.582;9.962;2022-08-30T02:20:54;17.10;99.90
4749;DHT22;2388;53.582;9.962;2022-08-30T02:23:20;17.00;99.90
4749;DHT22;2388;53.582;9.962;2022-08-30T02:25:45;17.00;99.90
4749;DHT22;2388;53.582;9.962;2022-08-30T02:28:11;17.00;99.90
4749;DHT22;2388;53.582;9.962;2022-08-30T02:30:38;17.00;99.90
4749;DHT22;2388;53.582;9.962;2022-08-30T02:33:04;17.00;99.90
4749;DHT22;2388;53.582;9.962;2022-08-30T02:35:29;17.00;99.90
4749;DHT22;2388;53.582;9.962;2022-08-30T02:37:55;16.90;99.90
4749;DHT22;2388;53.582;9.962;2022-08-30T02:40:21;16.90;99.90
4749;DHT22;2388;53.582;9.962;2022-08-30T02:42:47;16.90;99.90
4749;DHT22;2388;53.582;9.962;2022-08-30T02:45:13;16.90;99.90
4749;DHT22;2388;53.582;9.962;2022-08-30T02:47:40;16.90;99.90
4749;DHT22;2388;53.582;9.962;2022-08-30T02:50:07;16.90;99.90
4749;DHT22;2388;53.582;9.962;2022-08-30T02:52:34;16.90;99.90
4749;DHT22;2388;53.582;9.962;2022-08-30T02:55:00;17.00;99.90
4749;DHT22;2388;53.582;9.962;2022-08-30T02:57:25;17.00;99.90
4749;DHT22;2388;53.582;9.962;2022-08-30T02:59:51;17.00;99.90
4749;DHT22;2388;53.582;9.962;2022-08-30T03:02:17;16.90;99.90
4749;DHT22;2388;53.582;9.962;2022-08-30T03:04:43;16.90;99.90
4749;DHT22;2388;53.582;9.962;2022-08-30T03:07:10;16.90;99.90
4749;DHT22;2388;53.582;9.962;2022-08-30T03:09:36;16.90;99.90
4749;DHT22;2388;53.582;9.962;2022-08-30T03:12:02;16.90;99.90
4749;DHT22;2388;53.582;9.962;2022-08-30T03:14:30;16.90;99.90
4749;DHT22;2388;53.582;9.962;2022-08-30T03:16:56;16.90;99.90
4749;DHT22;2388;53.582;9.962;2022-08-30T03:19:22;16.90;99.90
4749;DHT22;2388;53.582;9.962;2022-08-30T03:21:48;16.80;99.90
4749;DHT22;2388;53.582;9.962;2022-08-30T03:24:14;16.90;99.90
4749;DHT22;2388;53.582;9.962;2022-08-30T03:26:40;16.80;99.90
4749;DHT22;2388;53.582;9.962;2022-08-30T03:29:05;16.90;99.90
4749;DHT22;2388;53.582;9.962;2022-08-30T03:31:31;16.90;99.90
4749;DHT22;2388;53.582;9.962;2022-08-30T03:33:56;16.90;99.90
4749;DHT22;2388;53.582;9.962;2022-08-30T03:36:22;16.80;99.90
4749;DHT22;2388;53.582;9.962;2022-08-30T03:38:47;16.80;99.90
4749;DHT22;2388;53.582;9.962;2022-08-30T03:41:13;16.80;99.90
4749;DHT22;2388;53.582;9.962;2022-08-30T03:43:40;16.80;99.90
4749;DHT22;2388;53.582;9.962;2022-08-30T03:46:06;16.80;99.90
4749;DHT22;2388;53.582;9.962;2022-08-30T03:48:32;16.80;99.90
4749;DHT22;2388;53.582;9.962;2022-08-30T03:50:57;16.70;99.90
4749;DHT22;2388;53.582;9.962;2022-08-30T03:53:23;16.80;99.90
4749;DHT22;2388;53.582;9.962;2022-08-30T03:55:48;16.80;99.90
4749;DHT22;2388;53.582;9.962;2022-08-30T03:58:14;16.70;99.90
4749;DHT22;2388;53.582;9.962;2022-08-30T04:00:39;16.70;99.90
4749;DHT22;2388;53.582;9.962;2022-08-30T04:03:05;16.70;99.90
4749;DHT22;2388;53.582;9.962;2022-08-30T04:05:31;16.70;99.90
4749;DHT22;2388;53.582;9.962;2022-08-30T04:07:56;16.70;99.90
4749;DHT22;2388;53.582;9.962;2022-08-30T04:10:22;16.70;99.90
4749;DHT22;2388;53.582;9.962;2022-08-30T04:12:49;16.70;99.90
4749;DHT22;2388;53.582;9.962;2022-08-30T04:15:16;16.70;99.90
4749;DHT22;2388;53.582;9.962;2022-08-30T04:17:42;16.70;99.90
4749;DHT22;2388;53.582;9.962;2022-08-30T04:20:08;16.70;99.90
4749;DHT22;2388;53.582;9.962;2022-08-30T04:22:33;16.70;99.90
4749;DHT22;2388;53.582;9.962;2022-08-30T04:24:59;16.70;99.90
4749;DHT22;2388;53.582;9.962;2022-08-30T04:27:24;16.70;99.90
4749;DHT22;2388;53.582;9.962;2022-08-30T04:29:50;16.70;99.90
4749;DHT22;2388;53.582;9.962;2022-08-30T04:32:16;16.70;99.90
4749;DHT22;2388;53.582;9.962;2022-08-30T04:34:42;16.70;99.90
4749;DHT22;2388;53.582;9.962;2022-08-30T04:37:08;16.70;99.90
4749;DHT22;2388;53.582;9.962;2022-08-30T04:39:33;16.70;99.90
4749;DHT22;2388;53.582;9.962;2022-08-30T04:41:59;16.70;99.90
4749;DHT22;2388;53.582;9.962;2022-08-30T04:44:25;16.70;99.90
4749;DHT22;2388;53.582;9.962;2022-08-30T04:46:52;16.70;99.90
4749;DHT22;2388;53.582;9.962;2022-08-30T04:49:17;16.70;99.90
4749;DHT22;2388;53.582;9.962;2022-08-30T04:51:43;16.60;99.90
4749;DHT22;2388;53.582;9.962;2022-08-30T04:54:08;16.70;99.90
4749;DHT22;2388;53.582;9.962;2022-08-30T04:56:34;16.70;99.90
4749;DHT22;2388;53.582;9.962;2022-08-30T04:58:59;16.70;99.90
4749;DHT22;2388;53.582;9.962;2022-08-30T05:01:27;16.70;99.90
4749;DHT22;2388;53.582;9.962;2022-08-30T05:03:54;16.70;99.90
4749;DHT22;2388;53.582;9.962;2022-08-30T05:06:21;16.70;99.90
4749;DHT22;2388;53.582;9.962;2022-08-30T05:08:46;16.70;99.90
4749;DHT22;2388;53.582;9.962;2022-08-30T05:11:12;16.70;99.90
4749;DHT22;2388;53.582;9.962;2022-08-30T05:13:38;16.70;99.90
4749;DHT22;2388;53.582;9.962;2022-08-30T05:16:06;16.70;99.90
4749;DHT22;2388;53.582;9.962;2022-08-30T05:18:32;16.70;99.90
4749;DHT22;2388;53.582;9.962;2022-08-30T05:21:11;16.70;99.90
4749;DHT22;2388;53.582;9.962;2022-08-30T05:23:37;16.70;99.90
4749;DHT22;2388;53.582;9.962;2022-08-30T05:26:08;16.70;99.90
4749;DHT22;2388;53.582;9.962;2022-08-30T05:28:34;16.70;99.90
4749;DHT22;2388;53.582;9.962;2022-08-30T05:31:00;16.70;99.90
4749;DHT22;2388;53.582;9.962;2022-08-30T05:33:26;16.70;99.90
4749;DHT22;2388;53.582;9.962;2022-08-30T05:35:52;16.60;99.90
4749;DHT22;2388;53.582;9.962;2022-08-30T05:38:17;16.70;99.90
4749;DHT22;2388;53.582;9.962;2022-08-30T05:40:43;16.70;99.90
4749;DHT22;2388;53.582;9.962;2022-08-30T05:43:09;16.60;99.90
4749;DHT22;2388;53.582;9.962;2022-08-30T05:45:36;16.70;99.90
4749;DHT22;2388;53.582;9.962;2022-08-30T05:48:01;16.70;99.90
4749;DHT22;2388;53.582;9.962;2022-08-30T05:50:27;16.60;99.90
4749;DHT22;2388;53.582;9.962;2022-08-30T05:52:52;16.70;99.90
4749;DHT22;2388;53.582;9.962;2022-08-30T05:55:18;16.70;99.90
4749;DHT22;2388;53.582;9.962;2022-08-30T05:57:43;16.70;99.90
4749;DHT22;2388;53.582;9.962;2022-08-30T06:00:13;16.70;99.90
4749;DHT22;2388;53.582;9.962;2022-08-30T06:02:39;16.80;99.90
4749;DHT22;2388;53.582;9.962;2022-08-30T06:05:06;16.80;99.90
4749;DHT22;2388;53.582;9.962;2022-08-30T06:07:31;16.80;99.90
4749;DHT22;2388;53.582;9.962;2022-08-30T06:09:57;16.80;99.90
4749;DHT22;2388;53.582;9.962;2022-08-30T06:12:22;16.80;99.90
4749;DHT22;2388;53.582;9.962;2022-08-30T06:14:48;16.80;99.90
4749;DHT22;2388;53.582;9.962;2022-08-30T06:17:14;16.80;99.90
4749;DHT22;2388;53.582;9.962;2022-08-30T06:19:40;16.80;99.90
4749;DHT22;2388;53.582;9.962;2022-08-30T06:22:05;16.90;99.90
4749;DHT22;2388;53.582;9.962;2022-08-30T06:24:31;16.90;99.90
4749;DHT22;2388;53.582;9.962;2022-08-30T06:26:56;16.90;99.90
4749;DHT22;2388;53.582;9.962;2022-08-30T06:29:22;17.00;99.90
4749;DHT22;2388;53.582;9.962;2022-08-30T06:31:47;17.00;99.90
4749;DHT22;2388;53.582;9.962;2022-08-30T06:34:14;17.10;99.90
4749;DHT22;2388;53.582;9.962;2022-08-30T06:36:40;17.20;99.90
4749;DHT22;2388;53.582;9.962;2022-08-30T06:39:06;17.20;99.90
4749;DHT22;2388;53.582;9.962;2022-08-30T06:41:34;17.30;99.90
4749;DHT22;2388;53.582;9.962;2022-08-30T06:44:03;17.30;99.90
4749;DHT22;2388;53.582;9.962;2022-08-30T06:46:32;17.40;99.90
4749;DHT22;2388;53.582;9.962;2022-08-30T06:48:58;17.40;99.90
4749;DHT22;2388;53.582;9.962;2022-08-30T06:51:30;17.50;99.90
4749;DHT22;2388;53.582;9.962;2022-08-30T06:53:57;17.50;99.90
4749;DHT22;2388;53.582;9.962;2022-08-30T06:56:23;17.50;99.90
4749;DHT22;2388;53.582;9.962;2022-08-30T06:58:50;17.60;99.90
4749;DHT22;2388;53.582;9.962;2022-08-30T07:01:21;17.60;99.90
4749;DHT22;2388;53.582;9.962;2022-08-30T07:03:48;17.60;99.90
4749;DHT22;2388;53.582;9.962;2022-08-30T07:06:14;17.60;99.90
4749;DHT22;2388;53.582;9.962;2022-08-30T07:08:40;17.70;99.90
4749;DHT22;2388;53.582;9.962;2022-08-30T07:11:06;17.70;99.90
4749;DHT22;2388;53.582;9.962;2022-08-30T07:13:36;17.80;99.90
4749;DHT22;2388;53.582;9.962;2022-08-30T07:16:11;17.80;99.90
4749;DHT22;2388;53.582;9.962;2022-08-30T07:18:37;17.80;99.90
4749;DHT22;2388;53.582;9.962;2022-08-30T07:21:19;17.80;99.90
4749;DHT22;2388;53.582;9.962;2022-08-30T07:23:47;17.80;99.90
4749;DHT22;2388;53.582;9.962;2022-08-30T07:26:19;17.90;99.90
4749;DHT22;2388;53.582;9.962;2022-08-30T07:28:45;17.90;99.90
4749;DHT22;2388;53.582;9.962;2022-08-30T07:31:14;17.90;99.90
4749;DHT22;2388;53.582;9.962;2022-08-30T07:33:40;17.90;99.90
4749;DHT22;2388;53.582;9.962;2022-08-30T07:36:06;17.90;99.90
4749;DHT22;2388;53.582;9.962;2022-08-30T07:38:32;18.00;99.90
4749;DHT22;2388;53.582;9.962;2022-08-30T07:40:58;18.00;99.90
4749;DHT22;2388;53.582;9.962;2022-08-30T07:43:29;18.00;99.90
4749;DHT22;2388;53.582;9.962;2022-08-30T07:45:59;18.10;99.90
4749;DHT22;2388;53.582;9.962;2022-08-30T07:48:24;18.10;99.90
4749;DHT22;2388;53.582;9.962;2022-08-30T07:50:50;18.20;99.90
4749;DHT22;2388;53.582;9.962;2022-08-30T07:53:15;18.20;99.90
4749;DHT22;2388;53.582;9.962;2022-08-30T07:55:41;18.30;99.90
4749;DHT22;2388;53.582;9.962;2022-08-30T07:58:06;18.30;99.90
4749;DHT22;2388;53.582;9.962;2022-08-30T08:00:32;18.30;99.90
4749;DHT22;2388;53.582;9.962;2022-08-30T08:03:04;18.30;99.90
4749;DHT22;2388;53.582;9.962;2022-08-30T08:05:29;18.40;99.90
4749;DHT22;2388;53.582;9.962;2022-08-30T08:07:55;18.30;99.90
4749;DHT22;2388;53.582;9.962;2022-08-30T08:10:20;18.30;99.90
4749;DHT22;2388;53.582;9.962;2022-08-30T08:12:47;18.30;99.90
4749;DHT22;2388;53.582;9.962;2022-08-30T08:15:12;18.40;99.90
4749;DHT22;2388;53.582;9.962;2022-08-30T08:17:37;18.40;99.90
4749;DHT22;2388;53.582;9.962;2022-08-30T08:20:03;18.40;99.90
4749;DHT22;2388;53.582;9.962;2022-08-30T08:22:29;18.40;99.90
4749;DHT22;2388;53.582;9.962;2022-08-30T08:24:55;18.40;99.90
4749;DHT22;2388;53.582;9.962;2022-08-30T08:27:20;18.40;99.90
4749;DHT22;2388;53.582;9.962;2022-08-30T08:29:46;18.50;99.90
4749;DHT22;2388;53.582;9.962;2022-08-30T08:32:11;18.60;99.90
4749;DHT22;2388;53.582;9.962;2022-08-30T08:34:37;18.60;99.90
4749;DHT22;2388;53.582;9.962;2022-08-30T08:37:02;18.60;99.90
4749;DHT22;2388;53.582;9.962;2022-08-30T08:39:28;18.70;99.90
4749;DHT22;2388;53.582;9.962;2022-08-30T08:45:23;18.70;99.90
4749;DHT22;2388;53.582;9.962;2022-08-30T08:47:56;18.70;99.90
4749;DHT22;2388;53.582;9.962;2022-08-30T08:50:23;18.80;99.90
4749;DHT22;2388;53.582;9.962;2022-08-30T08:52:53;18.80;99.90
4749;DHT22;2388;53.582;9.962;2022-08-30T08:55:43;18.90;99.90
4749;DHT22;2388;53.582;9.962;2022-08-30T08:58:29;18.90;99.90
4749;DHT22;2388;53.582;9.962;2022-08-30T09:00:56;19.10;99.90
4749;DHT22;2388;53.582;9.962;2022-08-30T09:03:25;19.10;99.90
4749;DHT22;2388;53.582;9.962;2022-08-30T09:05:53;19.20;99.90
4749;DHT22;2388;53.582;9.962;2022-08-30T09:08:21;19.20;99.90
4749;DHT22;2388;53.582;9.962;2022-08-30T09:11:01;19.20;99.90
4749;DHT22;2388;53.582;9.962;2022-08-30T09:13:28;19.20;99.90
4749;DHT22;2388;53.582;9.962;2022-08-30T09:15:56;19.20;99.90
4749;DHT22;2388;53.582;9.962;2022-08-30T09:18:42;19.20;99.90
4749;DHT22;2388;53.582;9.962;2022-08-30T09:21:09;19.20;99.90
4749;DHT22;2388;53.582;9.962;2022-08-30T09:23:35;19.20;99.90
4749;DHT22;2388;53.582;9.962;2022-08-30T09:26:03;19.20;99.90
4749;DHT22;2388;53.582;9.962;2022-08-30T09:28:42;19.20;99.90
4749;DHT22;2388;53.582;9.962;2022-08-30T09:31:26;19.20;99.90
4749;DHT22;2388;53.582;9.962;2022-08-30T09:33:54;19.30;99.90
4749;DHT22;2388;53.582;9.962;2022-08-30T09:36:27;19.30;99.90
4749;DHT22;2388;53.582;9.962;2022-08-30T09:38:59;19.30;99.90
4749;DHT22;2388;53.582;9.962;2022-08-30T09:41:38;19.40;99.90
4749;DHT22;2388;53.582;9.962;2022-08-30T09:44:21;19.50;99.90
4749;DHT22;2388;53.582;9.962;2022-08-30T09:46:53;19.50;99.90
4749;DHT22;2388;53.582;9.962;2022-08-30T09:49:42;19.50;99.90
4749;DHT22;2388;53.582;9.962;2022-08-30T09:52:24;19.50;99.90
4749;DHT22;2388;53.582;9.962;2022-08-30T09:57:41;19.50;99.90
4749;DHT22;2388;53.582;9.962;2022-08-30T10:00:16;19.60;99.90
4749;DHT22;2388;53.582;9.962;2022-08-30T10:08:33;19.60;99.90
4749;DHT22;2388;53.582;9.962;2022-08-30T10:11:06;19.60;99.90
4749;DHT22;2388;53.582;9.962;2022-08-30T10:13:50;19.60;99.90
4749;DHT22;2388;53.582;9.962;2022-08-30T10:16:34;19.60;99.90
4749;DHT22;2388;53.582;9.962;2022-08-30T10:19:21;19.60;99.90
4749;DHT22;2388;53.582;9.962;2022-08-30T10:21:53;19.60;99.90
4749;DHT22;2388;53.582;9.962;2022-08-30T10:24:31;19.60;99.90
4749;DHT22;2388;53.582;9.962;2022-08-30T10:27:04;19.60;99.90
4749;DHT22;2388;53.582;9.962;2022-08-30T10:29:40;19.70;99.90
4749;DHT22;2388;53.582;9.962;2022-08-30T10:32:22;19.70;99.90
4749;DHT22;2388;53.582;9.962;2022-08-30T10:34:53;19.70;99.90
4749;DHT22;2388;53.582;9.962;2022-08-30T10:37:23;19.70;99.90
4749;DHT22;2388;53.582;9.962;2022-08-30T10:39:52;19.70;99.90
4749;DHT22;2388;53.582;9.962;2022-08-30T10:42:23;19.70;99.90
4749;DHT22;2388;53.582;9.962;2022-08-30T10:45:00;19.80;99.90
4749;DHT22;2388;53.582;9.962;2022-08-30T10:47:35;19.80;99.90
4749;DHT22;2388;53.582;9.962;2022-08-30T10:52:43;19.80;99.90
4749;DHT22;2388;53.582;9.962;2022-08-30T10:55:33;19.80;99.90
4749;DHT22;2388;53.582;9.962;2022-08-30T10:58:01;19.90;99.90
4749;DHT22;2388;53.582;9.962;2022-08-30T11:03:38;20.00;99.90
4749;DHT22;2388;53.582;9.962;2022-08-30T11:06:23;20.00;99.90
4749;DHT22;2388;53.582;9.962;2022-08-30T11:14:20;20.50;99.90
4749;DHT22;2388;53.582;9.962;2022-08-30T11:16:48;20.40;99.90
4749;DHT22;2388;53.582;9.962;2022-08-30T11:19:27;20.30;99.90
4749;DHT22;2388;53.582;9.962;2022-08-30T11:25:09;20.00;99.90
4749;DHT22;2388;53.582;9.962;2022-08-30T11:27:53;20.00;99.90
4749;DHT22;2388;53.582;9.962;2022-08-30T11:35:46;20.00;99.90
4749;DHT22;2388;53.582;9.962;2022-08-30T11:57:10;19.90;99.90
4749;DHT22;2388;53.582;9.962;2022-08-30T11:59:51;20.00;99.90
4749;DHT22;2388;53.582;9.962;2022-08-30T12:02:43;20.00;99.90
4749;DHT22;2388;53.582;9.962;2022-08-30T12:10:59;20.00;99.90
4749;DHT22;2388;53.582;9.962;2022-08-30T12:16:06;20.10;99.90
4749;DHT22;2388;53.582;9.962;2022-08-30T12:18:45;20.10;99.90
4749;DHT22;2388;53.582;9.962;2022-08-30T12:23:58;20.30;99.90
4749;DHT22;2388;53.582;9.962;2022-08-30T12:29:06;20.50;99.90
4749;DHT22;2388;53.582;9.962;2022-08-30T12:31:32;20.70;99.90
4749;DHT22;2388;53.582;9.962;2022-08-30T12:34:03;20.70;99.90
4749;DHT22;2388;53.582;9.962;2022-08-30T12:36:39;20.80;99.90
4749;DHT22;2388;53.582;9.962;2022-08-30T12:41:34;21.00;99.20
4749;DHT22;2388;53.582;9.962;2022-08-30T12:44:00;21.10;98.30
4749;DHT22;2388;53.582;9.962;2022-08-30T12:46:26;21.00;98.20
4749;DHT22;2388;53.582;9.962;2022-08-30T12:48:52;20.90;98.20
4749;DHT22;2388;53.582;9.962;2022-08-30T12:51:33;20.90;99.30
4749;DHT22;2388;53.582;9.962;2022-08-30T12:54:07;20.90;98.40
4749;DHT22;2388;53.582;9.962;2022-08-30T12:56:50;20.80;98.20
4749;DHT22;2388;53.582;9.962;2022-08-30T12:59:51;20.70;98.20
4749;DHT22;2388;53.582;9.962;2022-08-30T13:02:21;20.70;98.80
4749;DHT22;2388;53.582;9.962;2022-08-30T13:04:49;20.80;98.40
4749;DHT22;2388;53.582;9.962;2022-08-30T13:07:33;20.80;97.30
4749;DHT22;2388;53.582;9.962;2022-08-30T13:10:05;20.70;97.40
4749;DHT22;2388;53.582;9.962;2022-08-30T13:12:31;20.70;97.70
4749;DHT22;2388;53.582;9.962;2022-08-30T13:15:16;20.70;98.20
4749;DHT22;2388;53.582;9.962;2022-08-30T13:17:42;20.60;97.70
4749;DHT22;2388;53.582;9.962;2022-08-30T13:22:38;20.80;97.90
4749;DHT22;2388;53.582;9.962;2022-08-30T13:25:06;20.90;97.20
4749;DHT22;2388;53.582;9.962;2022-08-30T13:27:33;21.00;97.40
4749;DHT22;2388;53.582;9.962;2022-08-30T13:30:12;21.10;97.10
4749;DHT22;2388;53.582;9.962;2022-08-30T13:32:40;21.10;96.90
4749;DHT22;2388;53.582;9.962;2022-08-30T13:35:07;21.00;97.10
4749;DHT22;2388;53.582;9.962;2022-08-30T13:37:33;21.00;96.30
4749;DHT22;2388;53.582;9.962;2022-08-30T13:39:59;21.10;96.50
4749;DHT22;2388;53.582;9.962;2022-08-30T13:42:24;21.20;96.20
4749;DHT22;2388;53.582;9.962;2022-08-30T13:44:50;21.20;96.00
4749;DHT22;2388;53.582;9.962;2022-08-30T13:47:16;21.30;95.70
4749;DHT22;2388;53.582;9.962;2022-08-30T13:49:42;21.30;95.50
4749;DHT22;2388;53.582;9.962;2022-08-30T13:52:11;21.30;95.40
4749;DHT22;2388;53.582;9.962;2022-08-30T13:54:38;21.30;94.70
4749;DHT22;2388;53.582;9.962;2022-08-30T13:57:04;21.20;94.70
4749;DHT22;2388;53.582;9.962;2022-08-30T13:59:30;21.20;93.90
4749;DHT22;2388;53.582;9.962;2022-08-30T14:01:59;21.10;93.90
4749;DHT22;2388;53.582;9.962;2022-08-30T14:04:25;21.10;94.00
4749;DHT22;2388;53.582;9.962;2022-08-30T14:06:51;21.00;93.60
4749;DHT22;2388;53.582;9.962;2022-08-30T14:09:16;21.00;93.60
4749;DHT22;2388;53.582;9.962;2022-08-30T14:11:42;21.00;93.70
4749;DHT22;2388;53.582;9.962;2022-08-30T14:14:08;20.90;93.40
4749;DHT22;2388;53.582;9.962;2022-08-30T14:16:36;20.90;93.70
4749;DHT22;2388;53.582;9.962;2022-08-30T14:19:03;20.90;93.40
4749;DHT22;2388;53.582;9.962;2022-08-30T14:21:29;20.80;93.30
4749;DHT22;2388;53.582;9.962;2022-08-30T14:23:55;20.80;93.80
4749;DHT22;2388;53.582;9.962;2022-08-30T14:26:26;20.80;93.50
4749;DHT22;2388;53.582;9.962;2022-08-30T14:28:52;20.80;93.50
4749;DHT22;2388;53.582;9.962;2022-08-30T14:31:18;20.80;93.30
4749;DHT22;2388;53.582;9.962;2022-08-30T14:33:44;20.80;93.00
4749;DHT22;2388;53.582;9.962;2022-08-30T14:36:09;20.80;93.30
4749;DHT22;2388;53.582;9.962;2022-08-30T14:38:37;20.70;93.10
4749;DHT22;2388;53.582;9.962;2022-08-30T14:41:03;20.70;93.30
4749;DHT22;2388;53.582;9.962;2022-08-30T14:43:29;20.70;93.20
4749;DHT22;2388;53.582;9.962;2022-08-30T14:45:57;20.80;93.20
4749;DHT22;2388;53.582;9.962;2022-08-30T14:48:22;20.70;93.30
4749;DHT22;2388;53.582;9.962;2022-08-30T14:50:48;20.80;93.50
4749;DHT22;2388;53.582;9.962;2022-08-30T14:53:13;20.80;93.60
4749;DHT22;2388;53.582;9.962;2022-08-30T14:55:39;20.80;93.60
4749;DHT22;2388;53.582;9.962;2022-08-30T14:58:04;20.80;93.50
4749;DHT22;2388;53.582;9.962;2022-08-30T15:00:31;20.80;93.20
4749;DHT22;2388;53.582;9.962;2022-08-30T15:02:56;20.80;93.20
4749;DHT22;2388;53.582;9.962;2022-08-30T15:05:22;20.70;93.30
4749;DHT22;2388;53.582;9.962;2022-08-30T15:07:48;20.70;93.30
4749;DHT22;2388;53.582;9.962;2022-08-30T15:10:18;20.70;93.40
4749;DHT22;2388;53.582;9.962;2022-08-30T15:12:49;20.70;93.40
4749;DHT22;2388;53.582;9.962;2022-08-30T15:15:17;20.70;93.60
4749;DHT22;2388;53.582;9.962;2022-08-30T15:17:47;20.60;93.40
4749;DHT22;2388;53.582;9.962;2022-08-30T15:20:14;20.60;93.60
4749;DHT22;2388;53.582;9.962;2022-08-30T15:22:39;20.60;93.40
4749;DHT22;2388;53.582;9.962;2022-08-30T15:25:06;20.60;93.40
4749;DHT22;2388;53.582;9.962;2022-08-30T15:27:31;20.60;93.40
4749;DHT22;2388;53.582;9.962;2022-08-30T15:29:57;20.50;93.30
4749;DHT22;2388;53.582;9.962;2022-08-30T15:32:22;20.40;93.30
4749;DHT22;2388;53.582;9.962;2022-08-30T15:34:48;20.40;93.50
4749;DHT22;2388;53.582;9.962;2022-08-30T15:37:13;20.40;93.40
4749;DHT22;2388;53.582;9.962;2022-08-30T15:39:49;20.40;93.50
4749;DHT22;2388;53.582;9.962;2022-08-30T15:42:16;20.50;93.40
4749;DHT22;2388;53.582;9.962;2022-08-30T15:44:44;20.40;93.50
4749;DHT22;2388;53.582;9.962;2022-08-30T15:47:09;20.40;93.70
4749;DHT22;2388;53.582;9.962;2022-08-30T15:49:35;20.40;93.70
4749;DHT22;2388;53.582;9.962;2022-08-30T15:52:02;20.40;93.70
4749;DHT22;2388;53.582;9.962;2022-08-30T15:54:28;20.40;93.70
4749;DHT22;2388;53.582;9.962;2022-08-30T15:56:54;20.40;93.60
4749;DHT22;2388;53.582;9.962;2022-08-30T15:59:24;20.20;93.40
4749;DHT22;2388;53.582;9.962;2022-08-30T16:01:50;20.20;93.80
4749;DHT22;2388;53.582;9.962;2022-08-30T16:04:15;20.20;93.70
4749;DHT22;2388;53.582;9.962;2022-08-30T16:06:41;20.20;93.90
4749;DHT22;2388;53.582;9.962;2022-08-30T16:09:07;20.20;94.10
4749;DHT22;2388;53.582;9.962;2022-08-30T16:11:34;20.20;94.20
4749;DHT22;2388;53.582;9.962;2022-08-30T16:14:02;20.20;94.50
4749;DHT22;2388;53.582;9.962;2022-08-30T16:16:27;20.20;93.90
4749;DHT22;2388;53.582;9.962;2022-08-30T16:18:55;20.10;93.30
4749;DHT22;2388;53.582;9.962;2022-08-30T16:21:26;20.00;93.20
4749;DHT22;2388;53.582;9.962;2022-08-30T16:23:54;20.00;93.20
4749;DHT22;2388;53.582;9.962;2022-08-30T16:26:20;20.00;93.10
4749;DHT22;2388;53.582;9.962;2022-08-30T16:28:47;19.90;92.30
4749;DHT22;2388;53.582;9.962;2022-08-30T16:31:14;19.90;91.90
4749;DHT22;2388;53.582;9.962;2022-08-30T16:33:40;19.90;91.60
4749;DHT22;2388;53.582;9.962;2022-08-30T16:36:05;19.90;91.00
4749;DHT22;2388;53.582;9.962;2022-08-30T16:38:31;19.80;90.40
4749;DHT22;2388;53.582;9.962;2022-08-30T16:41:02;19.80;87.90
4749;DHT22;2388;53.582;9.962;2022-08-30T16:43:28;19.70;86.30
4749;DHT22;2388;53.582;9.962;2022-08-30T16:45:53;19.70;85.50
4749;DHT22;2388;53.582;9.962;2022-08-30T16:48:19;19.70;85.30
4749;DHT22;2388;53.582;9.962;2022-08-30T16:50:44;19.70;84.60
4749;DHT22;2388;53.582;9.962;2022-08-30T16:53:11;19.70;85.50
4749;DHT22;2388;53.582;9.962;2022-08-30T16:55:38;19.70;84.00
4749;DHT22;2388;53.582;9.962;2022-08-30T16:58:06;19.60;83.10
4749;DHT22;2388;53.582;9.962;2022-08-30T17:00:32;19.50;82.60
4749;DHT22;2388;53.582;9.962;2022-08-30T17:02:58;19.50;81.90
4749;DHT22;2388;53.582;9.962;2022-08-30T17:05:24;19.50;81.70
4749;DHT22;2388;53.582;9.962;2022-08-30T17:07:50;19.50;83.40
4749;DHT22;2388;53.582;9.962;2022-08-30T17:10:16;19.50;82.70
4749;DHT22;2388;53.582;9.962;2022-08-30T17:12:42;19.50;83.10
4749;DHT22;2388;53.582;9.962;2022-08-30T17:15:09;19.50;82.60
4749;DHT22;2388;53.582;9.962;2022-08-30T17:17:35;19.50;82.40
4749;DHT22;2388;53.582;9.962;2022-08-30T17:20:00;19.40;81.60